Time;durP1;ratioP1;P1;durP2;ratioP2;P2;SDS_P1;SDS_P2;PMS_P1;PMS_P2;Temp;Humidity;BMP_temperature;BMP_pressure;BME280_temperature;BME280_humidity;BME280_pressure;Samples;Min_cycle;Max_cycle;Signal;HPM_P1;HPM_P2
2022/02/24 00:02:25;;;;;;;9.00;2.77;;;;;;;3.19;84.03;96758.25;5036403;28;20225;-72
2022/02/24 00:04:52;;;;;;;9.03;1.77;;;;;;;2.90;86.76;96745.84;5036127;28;20299;-72
2022/02/24 00:07:18;;;;;;;8.40;1.60;;;;;;;3.06;86.57;96741.94;5036825;28;20627;-72
2022/02/24 00:09:46;;;;;;;1.37;1.27;;;;;;;3.39;85.77;96742.72;5036136;28;20213;-72
2022/02/24 00:12:13;;;;;;;2.40;1.43;;;;;;;3.39;84.57;96739.28;5035364;28;20231;-72
2022/02/24 00:14:39;;;;;;;3.97;1.57;;;;;;;3.33;84.75;96737.16;5036218;28;20208;-71
2022/02/24 00:17:07;;;;;;;2.77;1.90;;;;;;;3.01;85.44;96735.44;5036542;28;20203;-72
2022/02/24 00:19:33;;;;;;;2.70;2.03;;;;;;;3.14;85.00;96736.94;5035824;28;20207;-72
2022/02/24 00:22:00;;;;;;;3.27;2.20;;;;;;;3.01;86.74;96731.88;5035504;28;20319;-71
2022/02/24 00:24:27;;;;;;;3.63;2.30;;;;;;;3.14;86.20;96742.16;5035348;28;20578;-72
2022/02/24 00:26:55;;;;;;;2.40;2.20;;;;;;;3.50;85.83;96734.03;5035607;28;20674;-72
2022/02/24 00:29:21;;;;;;;3.30;1.83;;;;;;;2.95;87.16;96726.31;5035441;28;20209;-72
2022/02/24 00:31:48;;;;;;;4.20;2.37;;;;;;;3.10;86.60;96730.34;5036665;28;20217;-72
2022/02/24 00:34:15;;;;;;;2.67;1.93;;;;;;;3.38;85.53;96727.22;5034889;28;20688;-72
2022/02/24 00:36:42;;;;;;;4.67;2.33;;;;;;;3.40;84.31;96723.53;5035474;28;20744;-72
2022/02/24 00:39:09;;;;;;;1.43;1.23;;;;;;;3.18;84.04;96720.13;5035638;28;20208;-72
2022/02/24 00:41:36;;;;;;;4.10;1.80;;;;;;;3.12;84.09;96715.44;5035812;28;20326;-72
2022/02/24 00:44:04;;;;;;;5.40;2.20;;;;;;;3.34;84.20;96712.78;5034520;28;20201;-72
2022/02/24 00:46:31;;;;;;;2.20;2.00;;;;;;;3.22;83.12;96709.38;5035094;28;20210;-72
2022/02/24 00:48:58;;;;;;;3.20;2.30;;;;;;;3.00;83.80;96705.16;5035518;28;20231;-72
2022/02/24 00:51:24;;;;;;;3.37;1.73;;;;;;;3.03;83.44;96708.34;5034940;28;20224;-72
2022/02/24 00:53:51;;;;;;;3.03;1.83;;;;;;;3.02;83.05;96707.50;5034674;28;20205;-72
2022/02/24 00:56:17;;;;;;;9.17;2.60;;;;;;;2.91;84.35;96709.28;5035815;28;20216;-72
2022/02/24 00:58:44;;;;;;;3.23;2.20;;;;;;;2.78;84.19;96705.97;5037970;28;20216;-72
2022/02/24 01:01:12;;;;;;;4.93;3.07;;;;;;;3.15;84.79;96704.75;5039946;28;20237;-72
2022/02/24 01:03:38;;;;;;;3.17;2.17;;;;;;;2.93;85.20;96706.56;5038708;28;20201;-72
2022/02/24 01:06:05;;;;;;;6.07;3.10;;;;;;;2.84;85.40;96708.13;5038419;28;20216;-71
2022/02/24 01:08:31;;;;;;;2.50;1.50;;;;;;;2.80;83.13;96709.31;5039299;28;20218;-72
2022/02/24 01:10:58;;;;;;;2.33;1.37;;;;;;;2.86;83.08;96702.78;5039117;28;20232;-72
2022/02/24 01:13:25;;;;;;;3.07;2.17;;;;;;;2.83;85.47;96703.03;5038265;28;20215;-72
2022/02/24 01:15:51;;;;;;;3.57;1.90;;;;;;;2.84;85.32;96697.72;5038793;28;20212;-72
2022/02/24 01:18:19;;;;;;;0.80;0.80;;;;;;;2.98;85.06;96700.06;5038851;28;20221;-72
2022/02/24 01:20:46;;;;;;;1.40;1.30;;;;;;;2.81;83.49;96707.53;5038254;28;20239;-72
2022/02/24 01:23:13;;;;;;;1.80;1.70;;;;;;;2.74;83.00;96707.16;5037810;28;20556;-72
2022/02/24 01:25:39;;;;;;;2.67;1.97;;;;;;;2.85;86.10;96704.56;5039030;28;20204;-72
2022/02/24 01:28:06;;;;;;;4.63;1.57;;;;;;;2.78;87.11;96699.97;5038865;28;20248;-72
2022/02/24 01:30:33;;;;;;;1.60;1.20;;;;;;;2.90;86.64;96701.59;5038521;28;20278;-72
2022/02/24 01:33:00;;;;;;;2.83;1.60;;;;;;;2.76;86.27;96694.88;5037852;28;20205;-72
2022/02/24 01:35:28;;;;;;;3.60;1.73;;;;;;;2.84;85.60;96691.66;5039001;28;20205;-72
2022/02/24 01:37:54;;;;;;;1.97;1.73;;;;;;;2.21;89.55;96691.41;5038140;28;20572;-72
2022/02/24 01:40:21;;;;;;;4.03;2.73;;;;;;;2.57;88.47;96688.59;5038874;28;20212;-72
2022/02/24 01:42:48;;;;;;;2.10;1.83;;;;;;;2.58;88.06;96691.09;5037943;28;20197;-72
2022/02/24 01:45:15;;;;;;;2.17;1.83;;;;;;;2.82;87.27;96683.16;5038239;28;20208;-72
2022/02/24 01:47:42;;;;;;;1.30;1.20;;;;;;;2.91;87.19;96675.44;5038682;28;20208;-72
2022/02/24 01:50:11;;;;;;;4.43;1.57;;;;;;;2.99;86.61;96672.25;5038481;28;20204;-72
2022/02/24 01:52:40;;;;;;;1.10;1.00;;;;;;;3.05;85.13;96662.19;5037924;28;20201;-72
2022/02/24 01:55:08;;;;;;;1.10;0.90;;;;;;;2.75;86.10;96666.34;5038201;28;20733;-72
2022/02/24 01:57:34;;;;;;;7.50;1.73;;;;;;;2.74;85.48;96662.13;5038487;28;20212;-72
2022/02/24 02:00:01;;;;;;;0.90;0.90;;;;;;;2.82;85.36;96665.75;5038656;28;20212;-72
2022/02/24 02:02:28;;;;;;;2.10;1.60;;;;;;;2.79;85.97;96657.34;5037584;28;20573;-72
2022/02/24 02:04:55;;;;;;;4.67;2.43;;;;;;;2.73;84.25;96653.47;5038362;28;20582;-73
2022/02/24 02:07:22;;;;;;;2.33;1.57;;;;;;;2.91;83.41;96656.41;5038402;28;20205;-72
2022/02/24 02:09:50;;;;;;;2.73;1.60;;;;;;;2.83;83.49;96653.59;5037432;28;20255;-72
2022/02/24 02:12:19;;;;;;;2.23;1.73;;;;;;;2.92;83.95;96655.47;5037643;28;20221;-72
2022/02/24 02:14:46;;;;;;;3.40;1.93;;;;;;;2.78;83.02;96651.34;5038791;28;20205;-72
2022/02/24 02:17:13;;;;;;;3.60;2.17;;;;;;;2.64;82.54;96643.78;5038195;28;20209;-73
2022/02/24 02:19:39;;;;;;;6.63;2.57;;;;;;;2.65;81.85;96650.66;5037759;28;20683;-72
2022/02/24 02:22:07;;;;;;;2.17;1.97;;;;;;;2.65;82.55;96640.25;5037577;28;20233;-72
2022/02/24 02:24:34;;;;;;;1.87;1.30;;;;;;;2.36;82.52;96640.84;5037240;28;20208;-72
2022/02/24 02:27:00;;;;;;;2.13;1.93;;;;;;;2.52;82.43;96639.53;5038024;28;20214;-72
2022/02/24 02:29:27;;;;;;;1.37;1.30;;;;;;;2.52;82.80;96631.75;5037598;28;20224;-72
2022/02/24 02:31:53;;;;;;;1.27;1.17;;;;;;;2.57;82.93;96628.78;5038139;28;20228;-72
2022/02/24 02:34:20;;;;;;;2.67;1.97;;;;;;;2.56;82.95;96625.34;5036965;28;20201;-72
2022/02/24 02:36:48;;;;;;;2.73;1.07;;;;;;;2.75;83.58;96620.38;5038413;28;20212;-72
2022/02/24 02:39:16;;;;;;;1.20;1.10;;;;;;;2.91;85.06;96619.97;5038460;28;20205;-72
2022/02/24 02:41:45;;;;;;;2.63;2.07;;;;;;;2.90;85.00;96618.31;5037780;28;20260;-72
2022/02/24 02:44:13;;;;;;;1.23;1.13;;;;;;;2.89;84.29;96621.88;5036625;28;20580;-72
2022/02/24 02:46:40;;;;;;;1.40;1.13;;;;;;;2.72;84.26;96619.78;5037357;28;20771;-73
2022/02/24 02:49:06;;;;;;;2.93;2.20;;;;;;;2.62;83.27;96603.22;5037505;28;20209;-72
2022/02/24 02:51:33;;;;;;;1.37;1.27;;;;;;;2.58;84.75;96610.47;5037746;28;20245;-73
2022/02/24 02:54:00;;;;;;;5.67;1.63;;;;;;;2.64;84.59;96599.56;5037364;28;20208;-72
2022/02/24 02:56:28;;;;;;;1.53;1.20;;;;;;;2.96;84.54;96597.84;5037526;28;20223;-72
2022/02/24 02:58:54;;;;;;;1.67;1.50;;;;;;;2.67;84.04;96590.69;5037479;28;20208;-72
2022/02/24 03:01:21;;;;;;;2.00;1.43;;;;;;;2.66;82.04;96589.88;5037584;28;20726;-72
2022/02/24 03:03:47;;;;;;;2.43;1.97;;;;;;;2.52;82.99;96584.94;5036968;28;20218;-72
2022/02/24 03:06:14;;;;;;;3.03;2.30;;;;;;;2.40;83.87;96583.25;5037256;28;20201;-73
2022/02/24 03:08:40;;;;;;;21.73;1.60;;;;;;;2.38;82.30;96583.50;5037736;28;20199;-72
2022/02/24 03:11:07;;;;;;;3.53;2.17;;;;;;;2.41;83.18;96584.09;5037435;28;20228;-72
2022/02/24 03:13:35;;;;;;;1.13;1.00;;;;;;;2.53;84.25;96583.97;5036495;28;20216;-72
2022/02/24 03:16:02;;;;;;;4.60;2.70;;;;;;;2.24;84.57;96583.75;5037363;28;20309;-73
2022/02/24 03:18:28;;;;;;;2.87;2.60;;;;;;;2.39;84.63;96586.00;5036770;28;20703;-73
2022/02/24 03:20:55;;;;;;;2.73;1.40;;;;;;;2.26;83.23;96574.06;5036888;28;20224;-72
2022/02/24 03:23:21;;;;;;;2.50;1.93;;;;;;;2.18;82.62;96579.88;5036537;28;20207;-73
2022/02/24 03:25:48;;;;;;;0.80;0.80;;;;;;;2.09;84.30;96575.38;5037762;28;20205;-72
2022/02/24 03:28:14;;;;;;;2.67;1.73;;;;;;;2.07;82.88;96566.03;5037911;28;20215;-72
2022/02/24 03:30:42;;;;;;;1.83;1.67;;;;;;;2.22;83.01;96567.47;5036759;28;20661;-73
2022/02/24 03:33:09;;;;;;;2.17;1.90;;;;;;;2.14;83.74;96564.59;5036072;28;20204;-72
2022/02/24 03:35:35;;;;;;;1.90;1.10;;;;;;;2.25;83.55;96567.22;5034882;28;20204;-72
2022/02/24 03:38:02;;;;;;;3.23;1.87;;;;;;;2.19;83.96;96567.69;5036730;28;20208;-72
2022/02/24 03:40:29;;;;;;;2.10;1.43;;;;;;;2.27;83.27;96552.34;5037437;28;20208;-72
2022/02/24 03:42:55;;;;;;;0.80;0.80;;;;;;;2.21;84.15;96556.22;5036799;28;20228;-73
2022/02/24 03:45:22;;;;;;;1.50;1.40;;;;;;;2.21;83.54;96558.81;5036450;28;20775;-72
2022/02/24 03:47:50;;;;;;;2.20;2.03;;;;;;;2.36;82.54;96560.22;5037265;28;20199;-72
2022/02/24 03:50:16;;;;;;;1.53;1.13;;;;;;;2.22;82.94;96559.66;5037391;28;20288;-73
2022/02/24 03:52:43;;;;;;;3.07;1.47;;;;;;;2.23;82.64;96553.50;5036860;28;20216;-72
2022/02/24 03:55:11;;;;;;;2.40;1.83;;;;;;;2.30;82.15;96546.88;5036802;28;20211;-73
2022/02/24 03:57:37;;;;;;;1.57;1.27;;;;;;;2.17;81.58;96548.78;5037032;28;20224;-73
2022/02/24 04:00:06;;;;;;;2.47;1.93;;;;;;;2.21;82.37;96542.41;5036276;28;21016;-72
2022/02/24 04:02:33;;;;;;;2.30;1.50;;;;;;;2.09;82.79;96535.56;5034556;28;20331;-72
2022/02/24 04:05:01;;;;;;;7.30;3.20;;;;;;;2.40;83.23;96536.47;5037884;28;20209;-72
2022/02/24 04:07:27;;;;;;;5.37;1.73;;;;;;;2.22;83.00;96531.06;5037688;28;20237;-72
2022/02/24 04:09:54;;;;;;;1.33;1.23;;;;;;;2.29;81.98;96527.03;5037075;28;20201;-73
2022/02/24 04:12:21;;;;;;;1.17;1.07;;;;;;;2.00;81.74;96528.50;5036857;28;20576;-72
2022/02/24 04:14:47;;;;;;;1.50;1.40;;;;;;;1.98;81.28;96519.97;5037732;28;20231;-72
2022/02/24 04:17:14;;;;;;;2.07;1.60;;;;;;;2.12;81.74;96517.94;5037230;28;20302;-72
2022/02/24 04:19:41;;;;;;;2.80;1.80;;;;;;;1.99;82.11;96519.84;5037268;28;20204;-73
2022/02/24 04:22:09;;;;;;;4.33;2.40;;;;;;;2.13;83.47;96518.78;5036294;28;20233;-73
2022/02/24 04:24:36;;;;;;;4.37;1.90;;;;;;;1.92;83.16;96518.69;5037188;28;20216;-73
2022/02/24 04:27:02;;;;;;;2.80;2.03;;;;;;;1.97;82.79;96515.72;5037012;28;20225;-73
2022/02/24 04:29:29;;;;;;;4.10;2.30;;;;;;;1.94;83.14;96515.97;5036998;28;20215;-72
2022/02/24 04:31:55;;;;;;;1.47;0.93;;;;;;;1.94;83.51;96515.97;5038414;28;20243;-73
2022/02/24 04:34:22;;;;;;;3.23;1.67;;;;;;;2.04;81.98;96512.53;5041023;28;20205;-73
2022/02/24 04:36:48;;;;;;;2.07;1.57;;;;;;;1.95;81.84;96513.25;5041514;28;20215;-72
2022/02/24 04:39:16;;;;;;;2.47;1.50;;;;;;;2.24;81.76;96508.38;5041777;28;20760;-72
2022/02/24 04:41:43;;;;;;;1.73;0.83;;;;;;;2.00;81.75;96510.31;5040347;28;20241;-73
2022/02/24 04:44:10;;;;;;;2.70;1.70;;;;;;;1.91;82.87;96505.81;5040079;28;20212;-73
2022/02/24 04:46:36;;;;;;;1.80;1.00;;;;;;;2.03;82.04;96504.84;5041123;28;20208;-73
2022/02/24 04:49:03;;;;;;;1.23;1.17;;;;;;;1.98;83.13;96496.59;5041431;28;20213;-73
2022/02/24 04:51:29;;;;;;;2.57;2.03;;;;;;;2.04;82.76;96496.94;5040830;28;20647;-72
2022/02/24 04:53:56;;;;;;;2.30;1.30;;;;;;;1.94;83.14;96490.78;5039956;28;20205;-72
2022/02/24 04:56:24;;;;;;;2.43;1.53;;;;;;;2.07;83.11;96490.66;5040315;28;20206;-73
2022/02/24 04:58:51;;;;;;;1.23;0.93;;;;;;;2.19;83.89;96489.69;5041289;28;20204;-73
2022/02/24 05:01:17;;;;;;;2.20;1.80;;;;;;;1.87;83.82;96483.59;5040754;28;20423;-72
2022/02/24 05:03:44;;;;;;;1.60;1.20;;;;;;;2.09;82.86;96483.59;5040182;28;20223;-73
2022/02/24 05:06:10;;;;;;;1.40;0.97;;;;;;;2.16;83.35;96485.56;5040724;28;20567;-73
2022/02/24 05:08:37;;;;;;;7.00;2.57;;;;;;;2.12;83.80;96478.16;5040748;28;20200;-73
2022/02/24 05:11:03;;;;;;;2.50;1.53;;;;;;;2.12;86.38;96472.94;5041460;28;20716;-73
2022/02/24 05:13:31;;;;;;;1.67;1.03;;;;;;;2.44;85.22;96470.28;5040557;28;20215;-73
2022/02/24 05:15:58;;;;;;;1.90;1.77;;;;;;;2.36;85.44;96466.63;5040770;28;20205;-73
2022/02/24 05:18:24;;;;;;;3.80;2.17;;;;;;;2.38;87.42;96471.72;5041594;28;20209;-73
2022/02/24 05:20:50;;;;;;;3.33;1.23;;;;;;;2.46;88.28;96462.34;5040395;28;20224;-73
2022/02/24 05:23:17;;;;;;;1.93;1.27;;;;;;;2.48;88.16;96469.09;5040692;28;20253;-73
2022/02/24 05:25:43;;;;;;;5.10;2.90;;;;;;;2.50;89.14;96468.97;5041654;28;20217;-73
2022/02/24 05:28:12;;;;;;;3.17;1.50;;;;;;;2.85;88.25;96454.75;5041810;28;20205;-73
2022/02/24 05:30:40;;;;;;;7.30;2.67;;;;;;;2.96;88.29;96449.47;5041362;28;20235;-73
2022/02/24 05:33:09;;;;;;;2.70;2.30;;;;;;;2.96;87.66;96449.47;5040544;28;20197;-73
2022/02/24 05:35:35;;;;;;;1.97;1.63;;;;;;;2.67;89.21;96458.84;5041785;28;21113;-73
2022/02/24 05:38:02;;;;;;;2.27;1.67;;;;;;;2.80;89.90;96456.91;5042384;28;20205;-73
2022/02/24 05:40:29;;;;;;;4.50;2.97;;;;;;;2.84;88.13;96453.09;5041603;28;20212;-72
2022/02/24 05:42:56;;;;;;;4.33;1.47;;;;;;;2.76;87.24;96452.06;5040538;28;20257;-73
2022/02/24 05:45:23;;;;;;;0.93;0.93;;;;;;;2.95;89.70;96444.41;5041257;28;20210;-73
2022/02/24 05:47:51;;;;;;;7.40;3.80;;;;;;;3.14;89.78;96443.59;5042228;28;20216;-73
2022/02/24 05:50:17;;;;;;;3.23;2.00;;;;;;;3.01;89.20;96432.53;5041846;28;20209;-72
2022/02/24 05:52:44;;;;;;;4.73;3.20;;;;;;;3.11;89.21;96415.19;5041585;28;20237;-73
2022/02/24 05:55:11;;;;;;;4.47;2.33;;;;;;;3.10;88.98;96417.94;5042245;28;20212;-73
2022/02/24 05:57:37;;;;;;;4.60;2.63;;;;;;;3.18;89.55;96420.72;5041964;28;20204;-73
2022/02/24 06:00:05;;;;;;;5.60;2.83;;;;;;;3.27;89.28;96419.94;5041520;28;20216;-73
2022/02/24 06:02:31;;;;;;;6.63;2.70;;;;;;;3.00;88.72;96419.66;5040790;28;20225;-73
2022/02/24 06:04:59;;;;;;;3.33;1.90;;;;;;;3.10;86.52;96417.94;5042078;28;20201;-73
2022/02/24 06:07:26;;;;;;;5.10;2.77;;;;;;;2.83;86.49;96420.22;5041282;28;20215;-73
2022/02/24 06:09:52;;;;;;;3.77;2.30;;;;;;;2.74;86.53;96420.16;5040653;28;20208;-74
2022/02/24 06:12:18;;;;;;;1.37;1.20;;;;;;;3.44;95.34;96421.97;5038815;28;20240;-72
2022/02/24 06:14:45;;;;;;;2.83;1.90;;;;;;;4.93;94.54;96401.56;5037353;28;20214;-73
2022/02/24 06:17:11;;;;;;;3.47;2.40;;;;;;;4.97;82.36;96403.72;5037494;28;20205;-72
2022/02/24 06:19:39;;;;;;;11.67;2.07;;;;;;;4.61;79.90;96414.06;5038654;28;20206;-73
2022/02/24 06:22:08;;;;;;;4.37;2.53;;;;;;;4.04;83.83;96415.75;5037138;28;20784;-73
2022/02/24 06:24:34;;;;;;;2.93;1.97;;;;;;;3.48;85.20;96415.56;5036580;28;20202;-72
2022/02/24 06:27:01;;;;;;;1.67;1.07;;;;;;;3.36;86.17;96413.97;5037276;28;20208;-73
2022/02/24 06:29:27;;;;;;;3.50;2.40;;;;;;;3.13;86.69;96415.06;5037732;28;20220;-73
2022/02/24 06:31:54;;;;;;;2.37;1.77;;;;;;;3.22;87.15;96411.69;5036791;28;20224;-73
2022/02/24 06:34:20;;;;;;;2.50;1.77;;;;;;;3.30;86.00;96410.09;5035825;28;20205;-72
2022/02/24 06:36:47;;;;;;;2.87;1.97;;;;;;;3.09;87.55;96416.28;5037563;28;20205;-73
2022/02/24 06:39:15;;;;;;;3.70;1.33;;;;;;;3.12;87.87;96413.44;5037514;28;20216;-73
2022/02/24 06:41:41;;;;;;;2.07;1.73;;;;;;;3.11;88.62;96414.38;5037323;28;20231;-72
2022/02/24 06:44:08;;;;;;;3.00;2.07;;;;;;;3.11;88.48;96419.59;5037156;28;20231;-73
2022/02/24 06:46:34;;;;;;;2.53;1.60;;;;;;;3.19;88.18;96417.97;5037124;28;20209;-73
2022/02/24 06:49:01;;;;;;;1.33;1.23;;;;;;;3.21;88.04;96415.28;5037090;28;20205;-72
2022/02/24 06:51:27;;;;;;;1.73;1.50;;;;;;;3.33;87.30;96414.22;5036862;28;20229;-73
2022/02/24 06:53:54;;;;;;;3.73;2.63;;;;;;;3.36;86.84;96419.19;5035875;28;20262;-73
2022/02/24 06:56:23;;;;;;;2.37;1.47;;;;;;;3.48;87.22;96418.16;5036337;28;20216;-73
2022/02/24 06:58:50;;;;;;;3.27;2.20;;;;;;;3.40;87.12;96416.19;5036925;28;20346;-73
2022/02/24 07:01:17;;;;;;;2.67;1.90;;;;;;;3.45;87.21;96418.41;5035988;28;20229;-72
2022/02/24 07:03:44;;;;;;;2.33;1.60;;;;;;;3.40;87.17;96415.34;5036118;28;20318;-73
2022/02/24 07:06:10;;;;;;;7.40;2.90;;;;;;;3.50;86.42;96411.88;5036615;28;20209;-72
2022/02/24 07:08:37;;;;;;;7.10;2.43;;;;;;;3.49;86.38;96404.16;5036623;28;20221;-73
2022/02/24 07:11:03;;;;;;;11.23;2.60;;;;;;;3.50;86.54;96411.03;5036748;28;20236;-73
2022/02/24 07:13:31;;;;;;;2.83;1.93;;;;;;;3.72;87.74;96412.50;5035929;28;20205;-72
2022/02/24 07:15:58;;;;;;;1.87;1.70;;;;;;;3.82;88.25;96405.53;5036479;28;20857;-73
2022/02/24 07:18:24;;;;;;;3.73;1.97;;;;;;;5.14;95.47;96403.03;5035360;28;20707;-73
2022/02/24 07:20:51;;;;;;;2.17;1.77;;;;;;;5.22;86.00;96397.94;5037146;28;20647;-73
2022/02/24 07:23:19;;;;;;;7.77;2.97;;;;;;;5.08;83.30;96387.94;5036628;28;20620;-73
2022/02/24 07:25:46;;;;;;;4.03;2.80;;;;;;;4.86;82.98;96398.69;5037056;28;20201;-73
2022/02/24 07:28:12;;;;;;;2.90;2.03;;;;;;;4.75;83.90;96390.16;5037439;28;20205;-73
2022/02/24 07:30:40;;;;;;;1.80;1.70;;;;;;;4.97;84.52;96385.44;5037151;28;20224;-73
2022/02/24 07:33:07;;;;;;;3.03;1.63;;;;;;;4.76;85.47;96388.38;5036159;28;20200;-72
2022/02/24 07:35:34;;;;;;;1.30;1.27;;;;;;;4.85;84.98;96381.34;5036880;28;20208;-72
2022/02/24 07:38:00;;;;;;;4.37;1.80;;;;;;;4.73;85.91;96380.81;5036784;28;20262;-72
2022/02/24 07:40:27;;;;;;;7.10;2.53;;;;;;;4.78;86.02;96378.63;5036238;28;20216;-72
2022/02/24 07:42:54;;;;;;;3.27;1.83;;;;;;;4.82;86.69;96386.88;5036341;28;20225;-73
2022/02/24 07:45:20;;;;;;;6.83;3.40;;;;;;;4.98;87.16;96381.06;5036951;28;20213;-72
2022/02/24 07:47:48;;;;;;;3.73;2.00;;;;;;;5.17;87.54;96374.03;5036446;28;20969;-72
2022/02/24 07:50:15;;;;;;;3.30;2.63;;;;;;;5.20;86.79;96384.19;5035560;28;20220;-72
2022/02/24 07:52:42;;;;;;;3.87;2.43;;;;;;;5.38;86.45;96374.63;5035876;28;20201;-72
2022/02/24 07:55:09;;;;;;;10.17;2.83;;;;;;;5.46;86.30;96374.78;5036412;28;20495;-72
2022/02/24 07:57:38;;;;;;;2.20;1.90;;;;;;;5.47;87.44;96379.00;5037162;28;20208;-72
2022/02/24 08:00:06;;;;;;;3.63;2.47;;;;;;;5.66;86.48;96381.56;5037234;28;20212;-72
2022/02/24 08:02:33;;;;;;;4.33;2.37;;;;;;;5.10;89.26;96374.72;5034560;28;20228;-72
2022/02/24 08:05:01;;;;;;;3.63;2.83;;;;;;;5.69;87.88;96376.03;5036343;28;20204;-72
2022/02/24 08:07:28;;;;;;;7.00;2.70;;;;;;;5.31;88.38;96370.97;5038924;28;20595;-73
2022/02/24 08:09:54;;;;;;;4.10;3.07;;;;;;;5.54;87.97;96374.88;5041097;28;20212;-72
2022/02/24 08:15:06;;;;;;;5.53;2.50;;;;;;;5.98;87.04;96368.91;5041138;28;20254;-72
2022/02/24 08:17:32;;;;;;;3.10;2.03;;;;;;;5.74;86.35;96361.59;5040891;28;20212;-73
2022/02/24 08:20:01;;;;;;;2.67;1.57;;;;;;;5.79;87.09;96361.16;5041173;28;20588;-72
2022/02/24 08:22:27;;;;;;;4.10;2.83;;;;;;;5.37;88.19;96362.53;5040024;28;20225;-72
2022/02/24 08:24:54;;;;;;;2.57;1.97;;;;;;;5.75;88.13;96362.41;5041084;28;20242;-72
2022/02/24 08:27:20;;;;;;;2.70;1.80;;;;;;;5.85;88.15;96348.34;5041219;28;20220;-72
2022/02/24 08:29:47;;;;;;;3.10;1.90;;;;;;;5.80;88.01;96349.75;5040784;28;20228;-72
2022/02/24 08:32:13;;;;;;;5.00;2.27;;;;;;;5.98;88.08;96348.00;5040021;28;20236;-72
2022/02/24 08:34:40;;;;;;;7.87;3.10;;;;;;;5.89;87.81;96344.44;5040583;28;20190;-72
2022/02/24 08:37:07;;;;;;;4.17;1.77;;;;;;;6.23;87.46;96335.84;5040680;28;20575;-72
2022/02/24 08:39:34;;;;;;;4.37;2.20;;;;;;;6.03;88.32;96330.88;5040900;28;20212;-72
2022/02/24 08:42:00;;;;;;;3.90;2.23;;;;;;;6.06;88.21;96335.84;5039936;28;20232;-73
2022/02/24 08:44:27;;;;;;;7.27;3.40;;;;;;;6.42;86.94;96332.28;5039806;28;20233;-72
2022/02/24 08:46:53;;;;;;;3.97;2.80;;;;;;;6.28;86.30;96327.56;5040476;28;20674;-72
2022/02/24 08:49:20;;;;;;;5.03;3.53;;;;;;;6.45;87.09;96329.34;5040009;28;20209;-73
2022/02/24 08:51:46;;;;;;;7.50;3.47;;;;;;;6.38;86.83;96323.09;5039965;28;20240;-72
2022/02/24 08:54:15;;;;;;;5.80;3.57;;;;;;;6.54;86.57;96320.59;5039277;28;20574;-72
2022/02/24 08:56:41;;;;;;;4.27;2.47;;;;;;;6.20;88.35;96323.06;5040056;28;20198;-72
2022/02/24 08:59:08;;;;;;;6.30;2.17;;;;;;;6.25;88.32;96322.59;5040610;28;20202;-72
2022/02/24 09:01:35;;;;;;;5.53;1.90;;;;;;;6.28;88.20;96322.34;5040219;28;20239;-73
2022/02/24 09:04:01;;;;;;;3.10;1.80;;;;;;;6.43;87.83;96324.28;5039020;28;20228;-73
2022/02/24 09:06:28;;;;;;;4.43;1.87;;;;;;;6.64;87.48;96311.69;5039610;28;20232;-72
2022/02/24 09:08:55;;;;;;;4.60;2.47;;;;;;;6.87;86.30;96312.84;5040390;28;20212;-73
2022/02/24 09:11:24;;;;;;;3.17;2.07;;;;;;;6.90;87.97;96312.56;5040809;28;20232;-72
2022/02/24 09:13:51;;;;;;;2.80;2.40;;;;;;;7.07;87.32;96316.94;5038901;28;21234;-72
2022/02/24 09:16:17;;;;;;;2.13;1.63;;;;;;;7.22;85.71;96315.38;5040386;28;20206;-72
2022/02/24 09:18:44;;;;;;;7.27;3.23;;;;;;;7.46;85.78;96317.16;5039386;28;20228;-72
2022/02/24 09:21:10;;;;;;;3.27;1.83;;;;;;;7.71;85.26;96303.16;5039044;28;20229;-72
2022/02/24 09:23:37;;;;;;;5.20;3.70;;;;;;;8.05;84.74;96299.53;5039644;28;20221;-72
2022/02/24 09:26:03;;;;;;;4.77;2.93;;;;;;;8.21;84.32;96289.09;5040394;28;20205;-72
2022/02/24 09:28:31;;;;;;;10.33;2.73;;;;;;;8.38;83.76;96290.75;5040023;28;20208;-72
2022/02/24 09:30:58;;;;;;;6.37;3.20;;;;;;;8.17;84.43;96286.94;5039646;28;20225;-72
2022/02/24 09:33:26;;;;;;;5.87;2.80;;;;;;;8.07;84.97;96280.97;5039186;28;20201;-72
2022/02/24 09:35:53;;;;;;;6.27;3.53;;;;;;;8.54;84.35;96281.09;5039794;28;20209;-72
2022/02/24 09:38:20;;;;;;;7.93;4.03;;;;;;;8.85;82.37;96284.69;5039684;28;20205;-73
2022/02/24 09:40:51;;;;;;;8.40;4.00;;;;;;;8.79;83.38;96277.47;5040094;28;20235;-72
2022/02/24 09:43:19;;;;;;;8.00;3.63;;;;;;;9.12;81.93;96271.19;5038616;28;20344;-73
2022/02/24 09:45:48;;;;;;;4.83;2.13;;;;;;;9.15;81.05;96270.84;5040045;28;20292;-72
2022/02/24 09:48:17;;;;;;;4.93;2.60;;;;;;;9.61;81.50;96262.19;5039195;28;21050;-73
2022/02/24 09:50:49;;;;;;;4.93;3.47;;;;;;;9.94;79.81;96254.78;5038497;28;20225;-72
2022/02/24 09:53:15;;;;;;;7.47;3.43;;;;;;;9.70;79.92;96256.72;5039118;28;20267;-73
2022/02/24 09:55:42;;;;;;;8.57;2.37;;;;;;;9.67;80.45;96251.78;5039181;28;20197;-72
2022/02/24 09:58:09;;;;;;;6.97;3.27;;;;;;;9.77;80.31;96247.94;5038381;28;20372;-72
2022/02/24 10:00:37;;;;;;;6.23;3.43;;;;;;;10.11;79.32;96253.75;5038553;28;20781;-72
2022/02/24 10:03:24;;;;;;;8.13;3.53;;;;;;;10.71;77.65;96244.09;5037954;28;20661;-73
2022/02/24 10:05:50;;;;;;;9.97;2.87;;;;;;;9.99;78.84;96233.25;5038670;28;20723;-72
2022/02/24 10:08:17;;;;;;;3.37;2.13;;;;;;;9.95;78.88;96230.13;5039004;28;20569;-72
2022/02/24 10:10:43;;;;;;;3.60;2.17;;;;;;;9.97;79.65;96232.63;5039691;28;20235;-72
2022/02/24 10:13:12;;;;;;;2.63;1.53;;;;;;;10.25;79.02;96228.50;5039847;28;20205;-72
2022/02/24 10:15:40;;;;;;;4.03;1.63;;;;;;;10.24;78.69;96213.69;5039778;28;21215;-72
2022/02/24 10:18:19;;;;;;;2.63;1.37;;;;;;;10.42;78.19;96209.75;5039497;28;20303;-72
2022/02/24 10:20:49;;;;;;;8.93;2.83;;;;;;;10.52;77.72;96208.50;5039751;28;20252;-72
2022/02/24 10:23:18;;;;;;;5.60;1.53;;;;;;;10.65;77.16;96213.16;5038659;28;20213;-73
2022/02/24 10:25:46;;;;;;;2.97;2.10;;;;;;;10.98;76.70;96210.88;5038751;28;20773;-72
2022/02/24 10:28:32;;;;;;;5.30;2.17;;;;;;;11.36;74.56;96201.88;5039515;28;20201;-72
2022/02/24 10:31:03;;;;;;;7.87;3.80;;;;;;;11.21;75.08;96206.34;5038670;28;20244;-73
2022/02/24 10:33:32;;;;;;;4.17;2.20;;;;;;;11.16;74.87;96208.72;5037807;28;20204;-72
2022/02/24 10:36:15;;;;;;;9.63;2.40;;;;;;;11.29;74.13;96192.25;5038890;28;20665;-72
2022/02/24 10:38:42;;;;;;;5.07;2.70;;;;;;;11.36;73.96;96196.59;5038602;28;20193;-72
2022/02/24 10:41:09;;;;;;;5.53;2.10;;;;;;;11.50;73.49;96179.19;5038497;28;20224;-72
2022/02/24 10:43:39;;;;;;;5.30;2.67;;;;;;;11.84;72.97;96178.38;5038037;28;20225;-73
2022/02/24 10:46:08;;;;;;;3.97;2.27;;;;;;;12.33;71.19;96177.50;5039092;28;20615;-72
2022/02/24 10:48:50;;;;;;;3.83;2.17;;;;;;;12.33;71.17;96174.84;5038786;28;20216;-73
2022/02/24 10:51:22;;;;;;;9.17;2.50;;;;;;;12.44;71.99;96171.69;5038959;28;20233;-73
2022/02/24 10:53:59;;;;;;;3.23;1.83;;;;;;;12.69;70.17;96167.66;5038340;28;20559;-72
2022/02/24 10:56:26;;;;;;;5.80;1.90;;;;;;;12.36;69.25;96163.88;5037837;28;21305;-72
2022/02/24 10:58:53;;;;;;;6.47;2.47;;;;;;;12.37;70.03;96159.41;5038157;28;20259;-72
2022/02/24 11:01:20;;;;;;;2.87;1.70;;;;;;;12.67;67.74;96151.13;5038407;28;20232;-73
2022/02/24 11:03:50;;;;;;;2.67;1.17;;;;;;;12.43;69.44;96159.47;5037147;28;20229;-72
2022/02/24 11:06:18;;;;;;;1.93;1.07;;;;;;;12.27;68.71;96154.47;5037799;28;20208;-74
2022/02/24 11:08:45;;;;;;;4.70;2.10;;;;;;;12.66;68.50;96146.84;5037028;28;20211;-71
2022/02/24 11:11:17;;;;;;;7.60;2.03;;;;;;;12.73;67.79;96152.19;5037011;28;20224;-71
2022/02/24 11:13:44;;;;;;;5.37;2.30;;;;;;;12.99;67.96;96140.81;5036437;28;20201;-72
2022/02/24 11:16:11;;;;;;;4.53;1.73;;;;;;;12.90;65.43;96135.88;5038005;28;20205;-72
2022/02/24 11:18:39;;;;;;;2.57;1.33;;;;;;;12.99;65.39;96137.38;5037091;28;20239;-71
2022/02/24 11:21:10;;;;;;;5.57;2.40;;;;;;;13.18;66.41;96126.91;5037020;28;20291;-72
2022/02/24 11:23:38;;;;;;;4.82;2.38;;;;;;;13.01;66.52;96125.59;5036838;28;20648;-72
2022/02/24 11:26:17;;;;;;;1.90;1.17;;;;;;;13.12;64.53;96126.84;5037588;28;20211;-72
2022/02/24 11:28:49;;;;;;;4.67;2.03;;;;;;;13.30;64.75;96122.69;5037422;28;20575;-72
2022/02/24 11:31:23;;;;;;;3.75;1.48;;;;;;;13.36;64.64;96119.25;5037153;28;20225;-71
2022/02/24 11:33:51;;;;;;;1.90;1.48;;;;;;;13.13;63.32;96115.28;5036721;28;20294;-72
2022/02/24 11:36:20;;;;;;;1.03;0.93;;;;;;;13.08;64.32;96104.47;5036221;28;20213;-72
2022/02/24 11:39:15;;;;;;;2.67;1.63;;;;;;;13.45;60.78;96102.19;5036669;28;20197;-72
2022/02/24 11:41:52;;;;;;;7.10;2.00;;;;;;;13.66;60.89;96091.50;5000826;28;20328;-72
2022/02/24 11:44:37;;;;;;;2.17;1.13;;;;;;;13.76;60.54;96095.38;5035847;28;20204;-72
2022/02/24 11:47:06;;;;;;;6.68;2.13;;;;;;;13.62;61.86;96091.06;5036321;28;20204;-72